Time;durP1;ratioP1;P1;durP2;ratioP2;P2;SDS_P1;SDS_P2;PMS_P1;PMS_P2;Temp;Humidity;BMP_temperature;BMP_pressure;BME280_temperature;BME280_humidity;BME280_pressure;Samples;Min_cycle;Max_cycle;Signal;HPM_P1;HPM_P2
2022/05/08 00:01:58;;;;;;;13.10;8.35;;;;;;;;;;5006883;28;20498;-63
2022/05/08 00:04:24;;;;;;;12.93;8.13;;;;;;;;;;5004973;28;20022;-63
2022/05/08 00:06:49;;;;;;;13.18;7.82;;;;;;;;;;5003381;28;20037;-63
2022/05/08 00:09:14;;;;;;;11.65;7.80;;;;;;;;;;5004903;28;20097;-64
2022/05/08 00:11:40;;;;;;;11.45;7.65;;;;;;;;;;5004448;28;20027;-64
2022/05/08 00:14:05;;;;;;;14.38;8.00;;;;;;;;;;5003564;28;20088;-62
2022/05/08 00:16:31;;;;;;;11.57;7.82;;;;;;;;;;5862481;23;20035;-63
2022/05/08 00:18:57;;;;;;;9.82;7.18;;;;;;;;;;5032223;28;20092;-64
2022/05/08 00:21:22;;;;;;;9.43;6.88;;;;;;;;;;5034014;28;20029;-62
2022/05/08 00:23:48;;;;;;;9.40;6.25;;;;;;;;;;5033860;28;20385;-62
2022/05/08 00:26:13;;;;;;;11.45;7.05;;;;;;;;;;5033951;28;20025;-62
2022/05/08 00:28:39;;;;;;;9.35;6.63;;;;;;;;;;5034098;28;20454;-63
2022/05/08 00:31:09;;;;;;;10.05;6.75;;;;;;;;;;5033830;28;20030;-64
2022/05/08 00:33:34;;;;;;;12.67;6.33;;;;;;;;;;5033925;28;20021;-64
2022/05/08 00:36:00;;;;;;;9.15;5.85;;;;;;;;;;5033990;28;20258;-64
2022/05/08 00:38:25;;;;;;;11.65;6.25;;;;;;;;;;5033786;28;20111;-63
2022/05/08 00:40:51;;;;;;;7.70;5.97;;;;;;;;;;5033846;28;20021;-63
2022/05/08 00:43:34;;;;;;;8.18;5.28;;;;;;;;;;5033590;28;20381;-64
2022/05/08 00:46:01;;;;;;;6.78;5.00;;;;;;;;;;5033749;28;20017;-64
2022/05/08 00:48:27;;;;;;;7.82;5.05;;;;;;;;;;5033849;28;20037;-65
2022/05/08 00:50:54;;;;;;;7.07;5.15;;;;;;;;;;5033717;28;20570;-65
2022/05/08 00:53:20;;;;;;;9.50;5.35;;;;;;;;;;5033631;28;20029;-64
2022/05/08 00:55:48;;;;;;;8.15;4.82;;;;;;;;;;5033756;28;20022;-63
2022/05/08 00:58:14;;;;;;;10.80;5.20;;;;;;;;;;5033645;28;20109;-64
2022/05/08 01:00:40;;;;;;;7.43;4.82;;;;;;;;;;5032388;28;20374;-66
2022/05/08 01:03:05;;;;;;;6.55;4.72;;;;;;;;;;5033537;28;20029;-64
2022/05/08 01:05:31;;;;;;;9.25;5.30;;;;;;;;;;5033478;28;20457;-65
2022/05/08 01:07:56;;;;;;;6.65;4.88;;;;;;;;;;5033403;28;20080;-65
2022/05/08 01:10:22;;;;;;;11.32;4.95;;;;;;;;;;5033476;28;20034;-64
2022/05/08 01:12:48;;;;;;;7.18;5.07;;;;;;;;;;5033325;28;20033;-65
2022/05/08 01:15:15;;;;;;;7.60;4.50;;;;;;;;;;5033351;28;20052;-65
2022/05/08 01:17:41;;;;;;;7.10;4.93;;;;;;;;;;5033599;28;20049;-65
2022/05/08 01:20:07;;;;;;;6.70;4.80;;;;;;;;;;5053293;28;20025;-64
2022/05/08 01:22:33;;;;;;;5.72;4.47;;;;;;;;;;5053034;28;20373;-66
2022/05/08 01:25:02;;;;;;;6.38;4.25;;;;;;;;;;5053133;28;20084;-62
2022/05/08 01:27:28;;;;;;;8.15;4.68;;;;;;;;;;5052889;28;20025;-63
2022/05/08 01:29:53;;;;;;;6.65;4.30;;;;;;;;;;5052771;28;20060;-63
2022/05/08 01:32:19;;;;;;;6.80;4.40;;;;;;;;;;5052943;28;20039;-62
2022/05/08 01:34:45;;;;;;;9.18;4.20;;;;;;;;;;5052938;28;20044;-62
2022/05/08 01:37:10;;;;;;;8.13;4.55;;;;;;;;;;5052850;28;20029;-63
2022/05/08 01:39:36;;;;;;;9.70;4.40;;;;;;;;;;5052945;28;20043;-63
2022/05/08 01:42:06;;;;;;;6.40;4.20;;;;;;;;;;5052806;28;20032;-63
2022/05/08 01:44:32;;;;;;;7.30;3.97;;;;;;;;;;5052632;28;20023;-64
2022/05/08 01:49:42;;;;;;;6.88;4.32;;;;;;;;;;5052729;28;20136;-63
2022/05/08 01:52:08;;;;;;;9.27;4.40;;;;;;;;;;5049232;28;20116;-62
2022/05/08 01:54:33;;;;;;;6.32;4.07;;;;;;;;;;5032158;28;20481;-64
2022/05/08 01:56:59;;;;;;;7.75;4.28;;;;;;;;;;5032557;28;20170;-63
2022/05/08 01:59:25;;;;;;;5.78;3.72;;;;;;;;;;5032474;28;20453;-63
2022/05/08 02:01:51;;;;;;;9.82;3.90;;;;;;;;;;5032617;28;20045;-62
2022/05/08 02:04:17;;;;;;;6.57;4.30;;;;;;;;;;5032694;28;20512;-62
2022/05/08 02:06:43;;;;;;;7.35;4.20;;;;;;;;;;5032706;28;20377;-63
2022/05/08 02:09:08;;;;;;;6.72;3.92;;;;;;;;;;5032707;28;20025;-63
2022/05/08 02:11:34;;;;;;;10.30;3.88;;;;;;;;;;5032635;28;20088;-64
2022/05/08 02:14:00;;;;;;;7.25;3.85;;;;;;;;;;5032388;28;20025;-62
2022/05/08 02:16:25;;;;;;;6.85;3.65;;;;;;;;;;5032283;28;20021;-63
2022/05/08 02:18:51;;;;;;;7.57;4.05;;;;;;;;;;5037640;28;20040;-63
2022/05/08 02:21:17;;;;;;;7.30;3.92;;;;;;;;;;5052565;28;20032;-64
2022/05/08 02:23:43;;;;;;;7.90;3.88;;;;;;;;;;5052339;28;20025;-64
2022/05/08 02:26:08;;;;;;;5.82;3.45;;;;;;;;;;5052469;28;20075;-61
2022/05/08 02:28:34;;;;;;;7.30;3.63;;;;;;;;;;5052165;28;20037;-63
2022/05/08 02:31:00;;;;;;;7.38;3.78;;;;;;;;;;5052381;28;20032;-63
2022/05/08 02:33:25;;;;;;;5.55;3.67;;;;;;;;;;5052432;28;20029;-62
2022/05/08 02:35:51;;;;;;;7.20;3.47;;;;;;;;;;5052184;28;20029;-63
2022/05/08 02:38:16;;;;;;;8.50;3.70;;;;;;;;;;5052045;28;20032;-63
2022/05/08 02:40:42;;;;;;;6.95;3.95;;;;;;;;;;5052301;28;20036;-64
2022/05/08 02:43:07;;;;;;;8.05;3.95;;;;;;;;;;5052064;28;20025;-62
2022/05/08 02:45:33;;;;;;;5.97;3.50;;;;;;;;;;5052247;28;20166;-62
2022/05/08 02:47:58;;;;;;;9.77;3.60;;;;;;;;;;5051822;28;20029;-62
2022/05/08 02:50:24;;;;;;;5.75;3.75;;;;;;;;;;5052303;28;20067;-62
2022/05/08 02:52:50;;;;;;;6.97;3.83;;;;;;;;;;5052399;28;20056;-62
2022/05/08 03:00:45;;;;;;;8.75;4.00;;;;;;;;;;5052371;28;20092;-63
2022/05/08 03:03:12;;;;;;;7.88;3.65;;;;;;;;;;5052011;28;20029;-63
2022/05/08 03:05:40;;;;;;;7.18;3.85;;;;;;;;;;5052923;28;20107;-62
2022/05/08 03:08:06;;;;;;;7.07;4.03;;;;;;;;;;5055445;28;20461;-63
2022/05/08 03:13:16;;;;;;;10.07;3.85;;;;;;;;;;5055494;28;20130;-62
2022/05/08 03:15:41;;;;;;;5.72;3.70;;;;;;;;;;5055447;28;20473;-63
2022/05/08 03:18:07;;;;;;;5.72;3.58;;;;;;;;;;5055085;28;20041;-62
2022/05/08 03:20:33;;;;;;;10.27;4.20;;;;;;;;;;5055100;28;20370;-61
2022/05/08 03:22:59;;;;;;;7.72;3.60;;;;;;;;;;5055282;28;20036;-62
2022/05/08 03:25:25;;;;;;;9.77;4.65;;;;;;;;;;5055034;28;20040;-63
2022/05/08 03:27:51;;;;;;;7.53;3.83;;;;;;;;;;5055275;28;20112;-62
2022/05/08 03:30:16;;;;;;;8.80;4.50;;;;;;;;;;5055129;28;20021;-61
2022/05/08 03:32:42;;;;;;;7.40;4.35;;;;;;;;;;5053982;28;20028;-61
2022/05/08 03:35:08;;;;;;;6.72;4.20;;;;;;;;;;5055156;28;20029;-64
2022/05/08 03:37:33;;;;;;;11.00;4.45;;;;;;;;;;5054946;28;20442;-63
2022/05/08 03:39:59;;;;;;;9.05;4.32;;;;;;;;;;5054931;28;20025;-63
2022/05/08 03:42:25;;;;;;;7.07;4.22;;;;;;;;;;5055101;28;20029;-63
2022/05/08 03:44:53;;;;;;;10.60;4.57;;;;;;;;;;5054948;28;20032;-62
2022/05/08 03:47:19;;;;;;;8.60;4.20;;;;;;;;;;5054889;28;20033;-63
2022/05/08 03:49:45;;;;;;;8.32;4.13;;;;;;;;;;5054913;28;20043;-64
2022/05/08 03:52:12;;;;;;;8.25;4.40;;;;;;;;;;5054762;28;20113;-63
2022/05/08 03:54:38;;;;;;;8.73;3.90;;;;;;;;;;5054532;28;20421;-63
2022/05/08 03:57:04;;;;;;;10.68;4.68;;;;;;;;;;5054603;28;20056;-64
2022/05/08 03:59:30;;;;;;;11.93;4.60;;;;;;;;;;5054584;28;20527;-62
2022/05/08 04:01:56;;;;;;;7.45;4.15;;;;;;;;;;5054570;28;20380;-63
2022/05/08 04:04:22;;;;;;;8.68;4.53;;;;;;;;;;5054680;28;20104;-63
2022/05/08 04:06:47;;;;;;;10.07;4.40;;;;;;;;;;5054507;28;20083;-63
2022/05/08 04:09:14;;;;;;;6.07;3.95;;;;;;;;;;5054143;28;20131;-63
2022/05/08 04:11:39;;;;;;;10.00;5.15;;;;;;;;;;5054438;28;20036;-62
2022/05/08 04:14:05;;;;;;;8.60;4.70;;;;;;;;;;5054441;28;20029;-62
2022/05/08 04:16:31;;;;;;;11.32;4.97;;;;;;;;;;5053484;28;20371;-63
2022/05/08 04:18:57;;;;;;;9.50;4.55;;;;;;;;;;5053890;28;20039;-62
2022/05/08 04:21:22;;;;;;;12.13;4.63;;;;;;;;;;5054278;28;20025;-62
2022/05/08 04:26:32;;;;;;;7.80;4.40;;;;;;;;;;5054241;28;20028;-63
2022/05/08 04:28:58;;;;;;;9.65;4.70;;;;;;;;;;5054115;28;20021;-64
2022/05/08 04:31:25;;;;;;;9.57;4.63;;;;;;;;;;5054071;28;20045;-64
2022/05/08 04:33:51;;;;;;;9.70;4.80;;;;;;;;;;5054063;28;20100;-63
2022/05/08 04:36:17;;;;;;;7.63;4.50;;;;;;;;;;5053956;28;20441;-63
2022/05/08 04:38:42;;;;;;;10.95;4.22;;;;;;;;;;5053320;28;20442;-64
2022/05/08 04:41:08;;;;;;;13.23;4.78;;;;;;;;;;5053916;28;20052;-63
2022/05/08 04:43:34;;;;;;;11.13;4.65;;;;;;;;;;5053844;28;20029;-64
2022/05/08 04:45:59;;;;;;;7.68;4.15;;;;;;;;;;5053727;28;20047;-63
2022/05/08 04:48:25;;;;;;;7.80;4.15;;;;;;;;;;5053636;28;20024;-63
2022/05/08 04:50:50;;;;;;;13.82;5.20;;;;;;;;;;5053669;28;20021;-63
2022/05/08 04:53:16;;;;;;;9.48;4.18;;;;;;;;;;5053516;28;20021;-62
2022/05/08 04:55:41;;;;;;;12.38;4.47;;;;;;;;;;5053598;28;20037;-63
2022/05/08 04:58:07;;;;;;;9.63;4.57;;;;;;;;;;5053521;28;20036;-63
2022/05/08 05:00:32;;;;;;;12.55;4.75;;;;;;;;;;5053529;28;20028;-64
2022/05/08 05:02:58;;;;;;;9.02;4.82;;;;;;;;;;5053426;28;20013;-63
2022/05/08 05:05:24;;;;;;;15.27;5.25;;;;;;;;;;5053334;28;20424;-61
2022/05/08 05:07:49;;;;;;;9.10;4.32;;;;;;;;;;5053128;28;20025;-63
2022/05/08 05:10:15;;;;;;;11.63;4.63;;;;;;;;;;5053602;28;20104;-64
2022/05/08 05:12:40;;;;;;;10.52;4.20;;;;;;;;;;5053222;28;20087;-64
2022/05/08 05:15:07;;;;;;;11.82;4.47;;;;;;;;;;5053135;28;20017;-63
2022/05/08 05:17:33;;;;;;;13.07;3.88;;;;;;;;;;5052904;28;20055;-64
2022/05/08 05:19:59;;;;;;;9.15;4.40;;;;;;;;;;5052910;28;20041;-63
2022/05/08 05:22:24;;;;;;;13.05;4.38;;;;;;;;;;5052862;28;20021;-63
2022/05/08 05:24:50;;;;;;;9.98;4.35;;;;;;;;;;5051856;28;20104;-62
2022/05/08 05:27:16;;;;;;;11.57;4.47;;;;;;;;;;5052974;28;20025;-63
2022/05/08 05:29:42;;;;;;;14.68;4.88;;;;;;;;;;5052150;28;20157;-63
2022/05/08 05:32:07;;;;;;;13.73;4.90;;;;;;;;;;5052909;28;20037;-63
2022/05/08 05:34:33;;;;;;;10.15;4.97;;;;;;;;;;5052892;28;20028;-64
2022/05/08 05:36:58;;;;;;;10.52;4.70;;;;;;;;;;5052583;28;20031;-63
2022/05/08 05:39:24;;;;;;;14.48;5.10;;;;;;;;;;5052878;28;20032;-64
2022/05/08 05:41:50;;;;;;;10.75;4.75;;;;;;;;;;5052919;28;20136;-64
2022/05/08 05:44:16;;;;;;;12.25;4.78;;;;;;;;;;5052824;28;20521;-63
2022/05/08 05:49:27;;;;;;;9.52;4.38;;;;;;;;;;5052715;28;20095;-63
2022/05/08 05:51:56;;;;;;;7.63;4.28;;;;;;;;;;5052395;28;20029;-61
2022/05/08 05:54:22;;;;;;;11.85;3.85;;;;;;;;;;5052939;28;20452;-61
2022/05/08 05:56:51;;;;;;;9.85;4.05;;;;;;;;;;5052686;28;20362;-62
2022/05/08 05:59:17;;;;;;;10.38;3.63;;;;;;;;;;5052554;28;20040;-62
2022/05/08 06:01:43;;;;;;;10.30;4.75;;;;;;;;;;5052521;28;20029;-62
2022/05/08 06:04:09;;;;;;;10.05;4.10;;;;;;;;;;5052590;28;20033;-64
2022/05/08 06:06:35;;;;;;;10.45;3.30;;;;;;;;;;5052298;28;20029;-63
2022/05/08 06:09:00;;;;;;;9.95;3.65;;;;;;;;;;5052493;28;20025;-63
2022/05/08 06:11:26;;;;;;;11.18;3.72;;;;;;;;;;5052483;28;20048;-63
2022/05/08 06:13:51;;;;;;;8.63;3.60;;;;;;;;;;5052493;28;20096;-63
2022/05/08 06:16:17;;;;;;;10.63;3.45;;;;;;;;;;5052406;28;20375;-63
2022/05/08 06:18:44;;;;;;;11.43;4.03;;;;;;;;;;5051926;28;20556;-63
2022/05/08 06:21:10;;;;;;;11.27;3.58;;;;;;;;;;5050886;28;20477;-63
2022/05/08 06:23:36;;;;;;;7.90;3.60;;;;;;;;;;5052447;28;20107;-64
2022/05/08 06:26:02;;;;;;;12.65;3.58;;;;;;;;;;5052469;28;20492;-64
2022/05/08 06:28:28;;;;;;;11.68;3.72;;;;;;;;;;5052153;28;20076;-63
2022/05/08 06:30:54;;;;;;;9.55;3.55;;;;;;;;;;5052270;28;20053;-62
2022/05/08 06:33:20;;;;;;;12.90;3.55;;;;;;;;;;5052345;28;20483;-63
2022/05/08 06:35:45;;;;;;;10.80;3.47;;;;;;;;;;5052053;28;20370;-64
2022/05/08 06:38:11;;;;;;;13.20;3.92;;;;;;;;;;5051989;28;20037;-64
2022/05/08 06:40:37;;;;;;;10.57;3.42;;;;;;;;;;5054304;28;20020;-62
2022/05/08 06:43:03;;;;;;;12.35;3.33;;;;;;;;;;5056127;28;20025;-63
2022/05/08 06:45:29;;;;;;;12.13;3.95;;;;;;;;;;5056194;28;20033;-64
2022/05/08 06:47:54;;;;;;;13.85;3.70;;;;;;;;;;5055614;28;20481;-63
2022/05/08 06:50:20;;;;;;;12.02;3.40;;;;;;;;;;5055692;28;20036;-63
2022/05/08 06:52:46;;;;;;;9.15;3.22;;;;;;;;;;5055547;28;20029;-64
2022/05/08 06:55:12;;;;;;;9.88;3.30;;;;;;;;;;5055689;28;20116;-64
2022/05/08 06:57:37;;;;;;;13.20;3.72;;;;;;;;;;5055685;28;20028;-63
2022/05/08 07:02:48;;;;;;;8.70;3.40;;;;;;;;;;5055562;28;20099;-64
2022/05/08 07:05:13;;;;;;;12.90;3.13;;;;;;;;;;5055662;28;20051;-63
2022/05/08 07:07:39;;;;;;;13.45;3.30;;;;;;;;;;5055525;28;20104;-64
2022/05/08 07:10:04;;;;;;;6.80;2.72;;;;;;;;;;5055650;28;20025;-62
2022/05/08 07:12:30;;;;;;;8.82;3.08;;;;;;;;;;5055465;28;20087;-64
2022/05/08 07:14:56;;;;;;;17.13;3.20;;;;;;;;;;5055472;28;20029;-62
2022/05/08 07:17:23;;;;;;;10.30;2.45;;;;;;;;;;5055216;28;20041;-63
2022/05/08 07:19:49;;;;;;;10.43;2.85;;;;;;;;;;5055195;28;20123;-63
2022/05/08 07:22:16;;;;;;;7.97;2.47;;;;;;;;;;5055262;28;20143;-63
2022/05/08 07:24:41;;;;;;;15.02;3.60;;;;;;;;;;5055218;28;20028;-62
2022/05/08 07:27:10;;;;;;;8.05;2.63;;;;;;;;;;5055273;28;20431;-63
2022/05/08 07:29:37;;;;;;;11.18;3.20;;;;;;;;;;5055081;28;20087;-62
2022/05/08 07:32:02;;;;;;;9.23;2.78;;;;;;;;;;5055034;28;20025;-62
2022/05/08 07:37:12;;;;;;;12.32;2.60;;;;;;;;;;5055021;28;20055;-62
2022/05/08 07:39:37;;;;;;;10.73;2.53;;;;;;;;;;5054974;28;20527;-64
2022/05/08 07:42:03;;;;;;;7.40;2.80;;;;;;;;;;5045805;28;20544;-62
2022/05/08 07:44:28;;;;;;;12.23;2.80;;;;;;;;;;5035279;28;20032;-63
2022/05/08 07:46:54;;;;;;;8.80;2.72;;;;;;;;;;5034623;28;20462;-63
2022/05/08 07:49:19;;;;;;;10.93;3.25;;;;;;;;;;5033883;28;20108;-62
2022/05/08 07:51:45;;;;;;;12.20;2.90;;;;;;;;;;5033684;28;20455;-63
2022/05/08 07:54:12;;;;;;;6.65;2.40;;;;;;;;;;5034073;28;20033;-63
2022/05/08 07:56:37;;;;;;;7.00;2.63;;;;;;;;;;5034749;28;20426;-64
2022/05/08 07:59:03;;;;;;;15.38;2.58;;;;;;;;;;5034540;28;20075;-64
2022/05/08 08:01:28;;;;;;;8.82;2.55;;;;;;;;;;5034603;28;20061;-64
2022/05/08 08:03:54;;;;;;;9.52;2.72;;;;;;;;;;5034620;28;20033;-63
2022/05/08 08:06:19;;;;;;;7.82;2.45;;;;;;;;;;5033447;28;20465;-64
2022/05/08 08:08:45;;;;;;;12.18;2.85;;;;;;;;;;5033748;28;20020;-62
2022/05/08 08:11:11;;;;;;;12.85;2.63;;;;;;;;;;5033860;28;20017;-66
2022/05/08 08:13:37;;;;;;;6.25;2.28;;;;;;;;;;5033813;28;20040;-63
2022/05/08 08:16:03;;;;;;;11.00;2.90;;;;;;;;;;5033755;28;20454;-62
2022/05/08 08:18:29;;;;;;;11.38;2.88;;;;;;;;;;5033278;28;20049;-62
2022/05/08 08:20:56;;;;;;;10.45;2.70;;;;;;;;;;5033570;28;20025;-63
2022/05/08 08:23:22;;;;;;;10.02;2.40;;;;;;;;;;5031009;28;20145;-64
2022/05/08 08:25:47;;;;;;;9.20;2.50;;;;;;;;;;5033469;28;20094;-64
2022/05/08 08:28:13;;;;;;;7.60;2.33;;;;;;;;;;5033491;28;20020;-63
2022/05/08 08:30:38;;;;;;;11.50;2.70;;;;;;;;;;5030445;28;20033;-64
2022/05/08 08:33:04;;;;;;;9.95;2.90;;;;;;;;;;5032421;28;20025;-64
2022/05/08 08:35:30;;;;;;;8.07;2.33;;;;;;;;;;5034029;28;20028;-64
2022/05/08 08:37:55;;;;;;;8.77;2.53;;;;;;;;;;5033481;28;20026;-62
2022/05/08 08:40:21;;;;;;;8.98;2.63;;;;;;;;;;5033856;28;20108;-64
2022/05/08 08:42:49;;;;;;;11.50;2.72;;;;;;;;;;5033659;28;20034;-63
2022/05/08 08:48:03;;;;;;;9.15;2.55;;;;;;;;;;5033733;28;20032;-63
2022/05/08 08:50:29;;;;;;;10.35;2.00;;;;;;;;;;5033451;28;20088;-64
2022/05/08 08:52:57;;;;;;;9.90;2.60;;;;;;;;;;5031778;28;20052;-62
2022/05/08 08:55:23;;;;;;;9.23;2.95;;;;;;;;;;5033465;28;20033;-64
2022/05/08 08:57:50;;;;;;;8.40;2.60;;;;;;;;;;5033326;28;20040;-63
2022/05/08 09:00:16;;;;;;;12.43;2.63;;;;;;;;;;5033102;28;20049;-63
2022/05/08 09:02:42;;;;;;;9.52;2.25;;;;;;;;;;5032012;28;20445;-64
2022/05/08 09:05:09;;;;;;;8.07;2.10;;;;;;;;;;5033261;28;20112;-63
2022/05/08 09:07:40;;;;;;;9.45;2.20;;;;;;;;;;5033060;28;20056;-63
2022/05/08 09:10:09;;;;;;;8.38;2.30;;;;;;;;;;5033372;28;20033;-64
2022/05/08 09:12:35;;;;;;;9.98;2.42;;;;;;;;;;5033351;28;20030;-63
2022/05/08 09:15:37;;;;;;;7.22;1.73;;;;;;;;;;5032634;28;20096;-64
2022/05/08 09:18:12;;;;;;;11.38;2.25;;;;;;;;;;4991593;28;20061;-63
2022/05/08 09:20:41;;;;;;;11.48;6.00;;;;;;;;;;4991557;28;20053;-63
2022/05/08 09:23:20;;;;;;;6.75;2.35;;;;;;;;;;4991552;28;20081;-64
2022/05/08 09:26:00;;;;;;;7.63;2.40;;;;;;;;;;4991571;28;20443;-62
2022/05/08 09:28:41;;;;;;;6.68;2.20;;;;;;;;;;4991414;28;20109;-64
2022/05/08 09:31:12;;;;;;;7.57;2.22;;;;;;;;;;4991353;28;20034;-64
2022/05/08 09:33:43;;;;;;;6.15;2.22;;;;;;;;;;4991242;28;20092;-65
2022/05/08 09:36:20;;;;;;;7.25;2.05;;;;;;;;;;4991391;28;20088;-65
2022/05/08 09:38:51;;;;;;;6.78;2.20;;;;;;;;;;4991337;28;20038;-64
2022/05/08 09:41:21;;;;;;;5.65;1.95;;;;;;;;;;4990701;28;20418;-65
2022/05/08 09:43:47;;;;;;;10.20;2.30;;;;;;;;;;4991083;28;20030;-65
2022/05/08 09:46:13;;;;;;;10.60;1.98;;;;;;;;;;4990579;28;20113;-63
2022/05/08 09:48:39;;;;;;;9.65;2.45;;;;;;;;;;4991418;28;20442;-65
2022/05/08 09:51:11;;;;;;;7.35;2.28;;;;;;;;;;4995862;28;20420;-64
2022/05/08 09:53:39;;;;;;;7.68;2.03;;;;;;;;;;5032740;28;20021;-64
2022/05/08 09:56:07;;;;;;;7.18;2.40;;;;;;;;;;5032600;28;20080;-64
2022/05/08 09:58:32;;;;;;;7.57;2.00;;;;;;;;;;5031997;28;20029;-64
2022/05/08 10:00:58;;;;;;;7.25;2.25;;;;;;;;;;5032487;28;20029;-62
2022/05/08 10:03:25;;;;;;;11.80;2.38;;;;;;;;;;5032589;28;20032;-63
2022/05/08 10:05:51;;;;;;;5.18;1.98;;;;;;;;;;5032455;28;20122;-64
2022/05/08 10:08:20;;;;;;;5.35;2.08;;;;;;;;;;5032465;28;20025;-63
2022/05/08 10:14:00;;;;;;;8.02;2.30;;;;;;;;;;5032649;28;20117;-63
2022/05/08 10:16:48;;;;;;;8.57;2.35;;;;;;;;;;5035814;28;20105;-62
2022/05/08 10:19:20;;;;;;;7.22;1.80;;;;;;;;;;5036190;28;20052;-63
2022/05/08 10:21:57;;;;;;;6.30;1.95;;;;;;;;;;5036388;28;20029;-64
2022/05/08 10:24:34;;;;;;;5.07;2.03;;;;;;;;;;5036191;28;20447;-63
2022/05/08 10:27:12;;;;;;;16.52;3.35;;;;;;;;;;5035792;28;20021;-64
2022/05/08 10:29:42;;;;;;;10.73;2.17;;;;;;;;;;5036313;28;20018;-64
2022/05/08 10:32:10;;;;;;;;;;;;;;;;;;5021093;28;20486;-62
2022/05/08 10:34:39;;;;;;;7.28;1.95;;;;;;;;;;5015295;28;20409;-64
2022/05/08 10:37:13;;;;;;;7.90;2.28;;;;;;;;;;5015566;28;20030;-62
2022/05/08 10:39:41;;;;;;;7.45;1.98;;;;;;;;;;5015627;28;20045;-63
2022/05/08 10:42:29;;;;;;;8.23;2.22;;;;;;;;;;5015534;28;20109;-64
2022/05/08 10:44:56;;;;;;;10.63;2.92;;;;;;;;;;5015563;28;20467;-63
2022/05/08 10:47:33;;;;;;;8.32;2.22;;;;;;;;;;5015344;28;20079;-62
2022/05/08 10:50:13;;;;;;;6.55;2.00;;;;;;;;;;5015397;28;20034;-64
2022/05/08 10:52:44;;;;;;;6.80;2.08;;;;;;;;;;5016043;28;20095;-62
2022/05/08 10:55:15;;;;;;;6.43;2.20;;;;;;;;;;5015585;28;20029;-63
2022/05/08 10:57:45;;;;;;;7.00;2.35;;;;;;;;;;5015709;28;20026;-64
2022/05/08 11:00:21;;;;;;;7.53;2.13;;;;;;;;;;5015879;28;20475;-63
2022/05/08 11:02:48;;;;;;;9.18;2.60;;;;;;;;;;5015809;28;20416;-64
2022/05/08 11:05:24;;;;;;;6.75;2.10;;;;;;;;;;5015606;28;20029;-64
2022/05/08 11:07:54;;;;;;;7.60;1.98;;;;;;;;;;5015716;28;20034;-61
2022/05/08 11:10:30;;;;;;;7.93;2.28;;;;;;;;;;5015518;28;20034;-64
2022/05/08 11:13:01;;;;;;;8.15;2.35;;;;;;;;;;5015426;28;20034;-64
2022/05/08 11:15:28;;;;;;;11.25;2.20;;;;;;;;;;5015377;28;20096;-64
2022/05/08 11:18:02;;;;;;;7.63;2.25;;;;;;;;;;5015367;28;20050;-63
2022/05/08 11:20:28;;;;;;;10.88;2.40;;;;;;;;;;5033531;28;20087;-63
2022/05/08 11:22:57;;;;;;;8.00;2.20;;;;;;;;;;5034996;28;20021;-64
2022/05/08 11:25:22;;;;;;;9.95;2.40;;;;;;;;;;5035102;28;20036;-63
2022/05/08 11:27:55;;;;;;;7.13;1.95;;;;;;;;;;5035176;28;20378;-63
2022/05/08 11:30:36;;;;;;;8.60;2.30;;;;;;;;;;5035046;28;20049;-64
2022/05/08 11:36:05;;;;;;;7.00;2.00;;;;;;;;;;5034870;28;20029;-62
2022/05/08 11:38:51;;;;;;;9.68;2.47;;;;;;;;;;5034783;28;20056;-65
2022/05/08 11:41:26;;;;;;;8.38;2.00;;;;;;;;;;5035067;28;20029;-63
2022/05/08 11:44:13;;;;;;;6.90;2.15;;;;;;;;;;5034714;28;20029;-63
2022/05/08 11:46:45;;;;;;;8.07;2.63;;;;;;;;;;5034792;28;20037;-64
2022/05/08 11:49:22;;;;;;;5.63;1.80;;;;;;;;;;5034431;28;20034;-64
2022/05/08 11:51:50;;;;;;;10.65;2.50;;;;;;;;;;5034853;28;20057;-63
2022/05/08 11:54:35;;;;;;;8.25;2.60;;;;;;;;;;5034451;28;20105;-64
2022/05/08 11:57:23;;;;;;;7.00;1.90;;;;;;;;;;5034370;28;20473;-64
2022/05/08 12:00:04;;;;;;;7.47;1.92;;;;;;;;;;5034465;28;20042;-62
2022/05/08 12:02:44;;;;;;;7.32;1.55;;;;;;;;;;5034501;28;20037;-63
2022/05/08 12:05:21;;;;;;;9.20;1.92;;;;;;;;;;5034236;28;20076;-63
2022/05/08 12:07:47;;;;;;;5.95;1.63;;;;;;;;;;5034165;28;20052;-63
2022/05/08 12:10:13;;;;;;;8.10;2.00;;;;;;;;;;5034305;28;20478;-64
2022/05/08 12:12:40;;;;;;;8.68;1.75;;;;;;;;;;5034451;28;20030;-62
2022/05/08 12:15:06;;;;;;;6.85;2.30;;;;;;;;;;5034294;28;20131;-63
2022/05/08 12:17:58;;;;;;;5.82;1.90;;;;;;;;;;5034132;28;20045;-61
2022/05/08 12:20:35;;;;;;;6.35;1.88;;;;;;;;;;5033980;28;20380;-61
2022/05/08 12:23:04;;;;;;;11.20;2.22;;;;;;;;;;5034046;28;20402;-63
2022/05/08 12:25:31;;;;;;;7.20;1.97;;;;;;;;;;5034372;28;20033;-62
2022/05/08 12:27:57;;;;;;;6.68;1.90;;;;;;;;;;5034250;28;20037;-64
2022/05/08 12:30:22;;;;;;;6.07;1.83;;;;;;;;;;5034064;28;20025;-63
2022/05/08 12:32:48;;;;;;;9.10;1.95;;;;;;;;;;5034011;28;20502;-65
2022/05/08 12:35:14;;;;;;;8.70;1.60;;;;;;;;;;5033865;28;20061;-65
2022/05/08 12:37:39;;;;;;;6.15;1.77;;;;;;;;;;5033100;28;20030;-64
2022/05/08 12:40:07;;;;;;;9.43;2.20;;;;;;;;;;5033812;28;20554;-63
2022/05/08 12:42:32;;;;;;;9.05;2.17;;;;;;;;;;5033837;28;20059;-63
2022/05/08 12:44:58;;;;;;;7.63;1.90;;;;;;;;;;5033632;28;20030;-65
2022/05/08 12:47:24;;;;;;;8.07;2.10;;;;;;;;;;5033609;28;20052;-64
2022/05/08 12:49:50;;;;;;;7.57;1.80;;;;;;;;;;5033478;28;20363;-64
2022/05/08 12:52:16;;;;;;;5.43;1.80;;;;;;;;;;5033239;28;20474;-63
2022/05/08 12:54:42;;;;;;;5.70;1.83;;;;;;;;;;5032554;28;20036;-64
2022/05/08 12:57:09;;;;;;;9.30;1.83;;;;;;;;;;5032702;28;20029;-63
2022/05/08 12:59:48;;;;;;;9.07;2.10;;;;;;;;;;5033317;28;20108;-64
2022/05/08 13:02:16;;;;;;;7.40;1.52;;;;;;;;;;5033418;28;20029;-63
2022/05/08 13:04:43;;;;;;;9.68;1.90;;;;;;;;;;5032839;28;20466;-64
2022/05/08 13:07:09;;;;;;;8.82;2.00;;;;;;;;;;5032812;28;20068;-63
2022/05/08 13:09:35;;;;;;;3.97;1.63;;;;;;;;;;5031958;28;20029;-64
2022/05/08 13:12:03;;;;;;;8.70;2.05;;;;;;;;;;5033255;28;20375;-63
2022/05/08 13:14:29;;;;;;;9.05;2.15;;;;;;;;;;5033042;28;20068;-63
2022/05/08 13:16:56;;;;;;;8.20;1.77;;;;;;;;;;5032700;28;20045;-64
2022/05/08 13:19:21;;;;;;;7.20;2.13;;;;;;;;;;5032812;28;20021;-63
2022/05/08 13:21:49;;;;;;;4.55;1.60;;;;;;;;;;5033171;28;20385;-64
2022/05/08 13:24:16;;;;;;;11.45;2.58;;;;;;;;;;5032863;28;20600;-64
2022/05/08 13:26:42;;;;;;;11.25;2.33;;;;;;;;;;5032882;28;20021;-64
2022/05/08 13:29:08;;;;;;;9.15;2.00;;;;;;;;;;5032200;28;20029;-64
2022/05/08 13:31:34;;;;;;;9.43;2.13;;;;;;;;;;5032984;28;20461;-64
2022/05/08 13:33:59;;;;;;;12.25;2.55;;;;;;;;;;5032582;28;20065;-64
2022/05/08 13:36:26;;;;;;;14.57;2.35;;;;;;;;;;5032687;28;20040;-64
2022/05/08 13:38:52;;;;;;;6.13;1.75;;;;;;;;;;5032693;28;20029;-64
2022/05/08 13:41:18;;;;;;;6.35;2.03;;;;;;;;;;5032792;28;20415;-64
2022/05/08 13:43:44;;;;;;;9.75;2.08;;;;;;;;;;5032821;28;20064;-64
2022/05/08 13:46:10;;;;;;;8.02;2.10;;;;;;;;;;5032805;28;20492;-64
2022/05/08 13:48:37;;;;;;;6.90;1.98;;;;;;;;;;5032266;28;20041;-64
2022/05/08 13:51:03;;;;;;;10.55;2.65;;;;;;;;;;5032118;28;20033;-64
2022/05/08 13:53:29;;;;;;;8.63;2.20;;;;;;;;;;5032771;28;20215;-64
2022/05/08 13:55:56;;;;;;;12.43;2.33;;;;;;;;;;5032582;28;20084;-64
2022/05/08 13:58:22;;;;;;;12.60;2.40;;;;;;;;;;5032459;28;20053;-64
2022/05/08 14:00:51;;;;;;;10.15;2.80;;;;;;;;;;5032667;28;20060;-64
2022/05/08 14:03:19;;;;;;;12.07;2.95;;;;;;;;;;5032331;28;20091;-64
2022/05/08 14:05:46;;;;;;;8.18;2.03;;;;;;;;;;5032509;28;20049;-64
2022/05/08 14:08:12;;;;;;;8.68;1.55;;;;;;;;;;5032647;28;20100;-64
2022/05/08 14:10:38;;;;;;;8.18;2.70;;;;;;;;;;5032423;28;20496;-64
2022/05/08 14:13:04;;;;;;;8.23;1.83;;;;;;;;;;5032213;28;20029;-63
2022/05/08 14:15:31;;;;;;;7.07;2.08;;;;;;;;;;5032496;28;20029;-65
2022/05/08 14:17:56;;;;;;;9.23;1.90;;;;;;;;;;5032043;28;20069;-63
2022/05/08 14:20:23;;;;;;;6.70;1.58;;;;;;;;;;5032071;28;20068;-64
2022/05/08 14:22:48;;;;;;;10.18;1.83;;;;;;;;;;5032395;28;20033;-65
2022/05/08 14:25:15;;;;;;;9.20;2.55;;;;;;;;;;5032239;28;20021;-65
2022/05/08 14:27:41;;;;;;;10.13;2.00;;;;;;;;;;5032278;28;20052;-64
2022/05/08 14:30:11;;;;;;;9.52;2.15;;;;;;;;;;5032369;28;20435;-63
2022/05/08 14:36:01;;;;;;;10.88;2.50;;;;;;;;;;5032173;28;20049;-64
2022/05/08 14:38:25;;;;;;;9.45;2.20;;;;;;;;;;5032043;28;20022;-64
2022/05/08 14:40:50;;;;;;;8.38;1.90;;;;;;;;;;5032190;28;20489;-64
2022/05/08 14:43:17;;;;;;;7.60;1.98;;;;;;;;;;5032059;28;20033;-63
2022/05/08 14:45:42;;;;;;;6.80;1.60;;;;;;;;;;5030691;28;20028;-64
2022/05/08 14:48:08;;;;;;;7.63;2.20;;;;;;;;;;5031907;28;20390;-64
2022/05/08 14:50:34;;;;;;;7.55;1.63;;;;;;;;;;5032192;28;20398;-64
2022/05/08 14:53:00;;;;;;;11.10;2.30;;;;;;;;;;5032023;28;20026;-64
2022/05/08 14:55:27;;;;;;;9.63;2.78;;;;;;;;;;5032053;28;20030;-64
2022/05/08 14:57:54;;;;;;;9.07;2.00;;;;;;;;;;5032056;28;20061;-62
2022/05/08 15:00:20;;;;;;;10.05;2.55;;;;;;;;;;5032000;28;20092;-64
2022/05/08 15:02:45;;;;;;;8.48;1.70;;;;;;;;;;5035628;28;20029;-63
2022/05/08 15:05:11;;;;;;;8.48;2.28;;;;;;;;;;5035377;28;20044;-64
2022/05/08 15:07:37;;;;;;;9.00;1.83;;;;;;;;;;5035646;28;20142;-62
2022/05/08 15:10:03;;;;;;;7.22;1.75;;;;;;;;;;5035513;28;20018;-62
2022/05/08 15:12:29;;;;;;;5.20;1.60;;;;;;;;;;5035606;28;20035;-62
2022/05/08 15:14:54;;;;;;;8.30;2.38;;;;;;;;;;5035406;28;20503;-63